Time;durP1;ratioP1;P1;durP2;ratioP2;P2;SDS_P1;SDS_P2;PMS_P1;PMS_P2;Temp;Humidity;BMP_temperature;BMP_pressure;BME280_temperature;BME280_humidity;BME280_pressure;Samples;Min_cycle;Max_cycle;Signal;HPM_P1;HPM_P2
2022/06/16 00:01:25;;;;;;;4.70;2.77;;;20.30;99.90;;;;;;5012648;28;20427;-82
2022/06/16 00:03:51;;;;;;;5.87;3.40;;;20.30;99.90;;;;;;5012938;28;20577;-84
2022/06/16 00:06:16;;;;;;;6.03;3.33;;;20.30;99.90;;;;;;5012125;28;20573;-82
2022/06/16 00:08:42;;;;;;;4.20;3.27;;;20.30;99.90;;;;;;5012192;28;20189;-83
2022/06/16 00:11:16;;;;;;;3.93;2.73;;;20.40;99.90;;;;;;5012204;28;20625;-82
2022/06/16 00:13:42;;;;;;;4.50;3.23;;;20.40;99.90;;;;;;5013764;28;20179;-83
2022/06/16 00:16:09;;;;;;;5.47;3.00;;;20.40;99.90;;;;;;5011716;28;20431;-81
2022/06/16 00:18:35;;;;;;;4.60;3.47;;;20.30;99.90;;;;;;5015445;28;20408;-82
2022/06/16 00:21:00;;;;;;;5.67;3.07;;;20.30;99.90;;;;;;5015634;28;20416;-83
2022/06/16 00:23:26;;;;;;;5.00;2.90;;;20.30;99.90;;;;;;5015069;28;20953;-82
2022/06/16 00:25:52;;;;;;;9.20;3.57;;;20.20;99.90;;;;;;5014620;28;20193;-81
2022/06/16 00:28:18;;;;;;;4.40;3.10;;;20.10;99.90;;;;;;5015326;28;20193;-81
2022/06/16 00:30:43;;;;;;;4.40;3.10;;;20.20;99.90;;;;;;5015299;28;20734;-81
2022/06/16 00:33:09;;;;;;;7.90;3.30;;;20.20;99.90;;;;;;5015012;28;20181;-81
2022/06/16 00:35:35;;;;;;;5.83;2.90;;;20.10;99.90;;;;;;5014599;28;20199;-83
2022/06/16 00:38:01;;;;;;;5.63;3.80;;;20.10;99.90;;;;;;5014748;28;20208;-83
2022/06/16 00:40:26;;;;;;;5.77;3.80;;;20.00;99.90;;;;;;5015043;28;20185;-82
2022/06/16 00:42:52;;;;;;;6.27;3.47;;;20.00;99.90;;;;;;5015051;28;20514;-83
2022/06/16 00:45:59;;;;;;;5.70;3.40;;;19.90;99.90;;;;;;5014411;28;20181;-83
2022/06/16 00:48:25;;;;;;;4.17;3.23;;;19.90;99.90;;;;;;5014387;28;20235;-81
2022/06/16 00:51:03;;;;;;;6.20;3.27;;;19.90;99.90;;;;;;5014579;28;20499;-83
2022/06/16 00:53:29;;;;;;;5.90;3.83;;;19.90;99.90;;;;;;5014327;28;20676;-81
2022/06/16 00:55:56;;;;;;;5.00;3.10;;;19.90;99.90;;;;;;5015147;28;20430;-82
2022/06/16 00:58:24;;;;;;;6.07;3.67;;;19.90;99.90;;;;;;5014296;28;20275;-81
2022/06/16 01:00:51;;;;;;;6.50;3.33;;;19.80;99.90;;;;;;5013919;28;20416;-81
2022/06/16 01:06:25;;;;;;;6.03;3.80;;;19.80;99.90;;;;;;4995558;28;20481;-83
2022/06/16 01:09:14;;;;;;;3.77;2.87;;;19.80;99.90;;;;;;5015638;28;20412;-81
2022/06/16 01:15:10;;;;;;;5.63;3.37;;;19.90;99.90;;;;;;5015099;28;20992;-81
2022/06/16 01:18:10;;;;;;;5.70;4.27;;;19.80;99.90;;;;;;5014361;28;20511;-82
2022/06/16 01:21:05;;;;;;;4.03;3.13;;;19.80;99.90;;;;;;5013743;28;20923;-83
2022/06/16 01:23:48;;;;;;;6.43;3.57;;;19.70;99.90;;;;;;5013757;28;20404;-82
2022/06/16 01:26:33;;;;;;;4.63;3.47;;;19.70;99.90;;;;;;5014234;28;20514;-83
2022/06/16 01:28:58;;;;;;;5.07;3.67;;;19.60;99.90;;;;;;5012091;28;20483;-81
2022/06/16 01:31:24;;;;;;;6.43;3.87;;;19.50;99.90;;;;;;5014553;28;20882;-82
2022/06/16 01:33:57;;;;;;;5.13;3.03;;;19.50;99.90;;;;;;5016258;28;20177;-82
2022/06/16 01:36:36;;;;;;;4.43;3.20;;;19.60;99.90;;;;;;5015486;28;20205;-81
2022/06/16 01:39:09;;;;;;;4.50;3.37;;;19.60;99.90;;;;;;5016129;28;20531;-82
2022/06/16 01:42:08;;;;;;;8.10;3.57;;;19.40;99.90;;;;;;5015484;28;20412;-81
2022/06/16 01:44:42;;;;;;;5.90;3.83;;;19.50;99.90;;;;;;5016942;28;20400;-82
2022/06/16 01:47:12;;;;;;;5.20;3.50;;;19.50;99.90;;;;;;5015892;28;20431;-82
2022/06/16 01:49:44;;;;;;;3.80;2.90;;;19.40;99.90;;;;;;5015835;28;20400;-82
2022/06/16 01:52:36;;;;;;;9.67;3.30;;;19.40;99.90;;;;;;5015026;28;20776;-83
2022/06/16 01:55:14;;;;;;;4.30;3.07;;;19.50;99.90;;;;;;5015926;28;20428;-82
2022/06/16 01:57:49;;;;;;;3.70;2.90;;;19.50;99.90;;;;;;5013909;28;20894;-83
2022/06/16 02:00:24;;;;;;;5.50;3.10;;;19.50;99.90;;;;;;5015961;28;20415;-82
2022/06/16 02:02:57;;;;;;;4.03;3.50;;;19.50;99.90;;;;;;5014914;28;20403;-82
2022/06/16 02:05:42;;;;;;;4.83;3.03;;;19.50;99.90;;;;;;5014115;28;21000;-82
2022/06/16 02:08:16;;;;;;;6.77;3.53;;;19.50;99.90;;;;;;5015378;28;20494;-82
2022/06/16 02:10:57;;;;;;;7.83;4.40;;;19.50;99.90;;;;;;5014441;28;20456;-81
2022/06/16 02:13:28;;;;;;;5.00;2.93;;;19.50;99.90;;;;;;5013985;28;20982;-82
2022/06/16 02:16:12;;;;;;;13.00;3.80;;;19.40;99.90;;;;;;5013719;28;20484;-81
2022/06/16 02:18:40;;;;;;;5.93;3.77;;;19.40;99.90;;;;;;5015958;28;20404;-82
2022/06/16 02:21:14;;;;;;;9.10;3.80;;;19.40;99.90;;;;;;5013703;28;20419;-82
2022/06/16 02:23:41;;;;;;;4.63;3.93;;;19.40;99.90;;;;;;5013952;28;20403;-82
2022/06/16 02:26:07;;;;;;;8.80;3.53;;;19.30;99.90;;;;;;5014343;28;20836;-82
2022/06/16 02:28:51;;;;;;;7.13;3.43;;;19.30;99.90;;;;;;5013061;28;20424;-83
2022/06/16 02:31:16;;;;;;;4.50;2.90;;;19.30;99.90;;;;;;5013439;28;20691;-81
2022/06/16 02:33:54;;;;;;;8.80;4.30;;;19.30;99.90;;;;;;5014057;28;20414;-82
2022/06/16 02:36:46;;;;;;;4.80;3.30;;;19.20;99.90;;;;;;5014031;28;20204;-82
2022/06/16 02:39:33;;;;;;;5.43;3.70;;;19.20;99.90;;;;;;5013292;28;20412;-81
2022/06/16 02:42:01;;;;;;;4.90;3.13;;;19.10;99.90;;;;;;5013037;28;20412;-81
2022/06/16 02:44:41;;;;;;;7.30;3.60;;;19.10;99.90;;;;;;5012648;28;20420;-82
2022/06/16 02:47:21;;;;;;;8.80;3.37;;;19.00;99.90;;;;;;5012082;28;20485;-81
2022/06/16 02:49:48;;;;;;;3.97;3.03;;;18.90;99.90;;;;;;5012473;28;20938;-82
2022/06/16 02:52:32;;;;;;;4.80;3.57;;;18.90;99.90;;;;;;5012601;28;20419;-82
2022/06/16 02:55:14;;;;;;;6.57;3.67;;;18.90;99.90;;;;;;5012896;28;20427;-82
2022/06/16 02:58:10;;;;;;;6.93;3.30;;;18.90;99.90;;;;;;5013764;28;20459;-82
2022/06/16 03:00:43;;;;;;;11.43;4.10;;;18.80;99.90;;;;;;5008266;28;20946;-82
2022/06/16 03:03:17;;;;;;;5.47;4.00;;;18.80;99.90;;;;;;5012479;28;20799;-83
2022/06/16 03:05:42;;;;;;;5.30;3.53;;;18.70;99.90;;;;;;5013265;28;20419;-82
2022/06/16 03:08:08;;;;;;;5.30;3.50;;;18.70;99.90;;;;;;5012290;28;20432;-82
2022/06/16 03:10:51;;;;;;;6.70;3.10;;;18.60;99.90;;;;;;5012197;28;20205;-82
2022/06/16 03:13:43;;;;;;;4.77;3.63;;;18.50;99.90;;;;;;5013171;28;20153;-82
2022/06/16 03:16:10;;;;;;;4.90;3.20;;;18.40;99.90;;;;;;5008310;28;20456;-82
2022/06/16 03:18:35;;;;;;;7.80;3.50;;;18.40;99.90;;;;;;5013730;28;20408;-82
2022/06/16 03:21:01;;;;;;;6.90;4.63;;;18.30;99.90;;;;;;5013018;28;20973;-82
2022/06/16 03:23:27;;;;;;;6.43;3.60;;;18.30;99.90;;;;;;5011183;28;20180;-82
2022/06/16 03:25:52;;;;;;;6.37;3.77;;;18.20;99.90;;;;;;5010391;28;20328;-81
2022/06/16 03:28:18;;;;;;;6.33;3.47;;;18.10;99.90;;;;;;5011023;28;20184;-81
2022/06/16 03:30:44;;;;;;;6.27;3.70;;;18.00;99.90;;;;;;5010710;28;20266;-81
2022/06/16 03:33:11;;;;;;;5.90;3.40;;;18.00;99.90;;;;;;5010980;28;20276;-81
2022/06/16 03:35:38;;;;;;;6.27;3.53;;;18.10;99.90;;;;;;5010437;28;20420;-81
2022/06/16 03:38:10;;;;;;;9.90;3.93;;;18.10;99.90;;;;;;5010437;28;20447;-81
2022/06/16 03:40:36;;;;;;;5.60;4.13;;;18.10;99.90;;;;;;5031353;28;20436;-83
2022/06/16 03:43:02;;;;;;;6.67;3.70;;;18.00;99.90;;;;;;5017495;28;20424;-82
2022/06/16 03:45:27;;;;;;;6.00;3.70;;;18.00;99.90;;;;;;5017560;28;20173;-83
2022/06/16 03:47:53;;;;;;;4.97;3.13;;;18.00;99.90;;;;;;5018576;28;20224;-83
2022/06/16 03:50:19;;;;;;;5.20;3.60;;;18.00;99.90;;;;;;5017158;28;20260;-83
2022/06/16 03:52:44;;;;;;;4.50;3.37;;;18.00;99.90;;;;;;5018762;28;20177;-83
2022/06/16 03:55:10;;;;;;;5.10;3.80;;;18.00;99.90;;;;;;5020874;28;20657;-83
2022/06/16 03:57:36;;;;;;;6.27;4.13;;;18.00;99.90;;;;;;5020204;28;20216;-83
2022/06/16 04:00:02;;;;;;;10.03;3.97;;;17.90;99.90;;;;;;5020439;28;20181;-84
2022/06/16 04:02:28;;;;;;;6.00;3.63;;;17.90;99.90;;;;;;5020458;28;20181;-83
2022/06/16 04:04:53;;;;;;;5.77;3.63;;;17.80;99.90;;;;;;5019608;28;20416;-83
2022/06/16 04:07:19;;;;;;;5.83;3.90;;;17.90;99.90;;;;;;5019696;28;20217;-83
2022/06/16 04:09:44;;;;;;;5.23;3.53;;;17.90;99.90;;;;;;5019213;28;20581;-82
2022/06/16 04:12:10;;;;;;;7.60;4.00;;;17.90;99.90;;;;;;5019749;28;20199;-84
2022/06/16 04:14:37;;;;;;;9.07;4.10;;;17.80;99.90;;;;;;5019240;28;20173;-83
2022/06/16 04:17:03;;;;;;;6.23;4.43;;;17.80;99.90;;;;;;5020169;28;20193;-82
2022/06/16 04:19:28;;;;;;;6.73;3.63;;;17.80;99.90;;;;;;5016109;28;20427;-82
2022/06/16 04:21:54;;;;;;;5.00;3.50;;;17.80;99.90;;;;;;5014019;28;20234;-81
2022/06/16 04:24:22;;;;;;;4.30;3.30;;;17.70;99.90;;;;;;5013909;28;20177;-81
2022/06/16 04:26:51;;;;;;;5.20;3.20;;;17.70;99.90;;;;;;5013450;28;20205;-81
2022/06/16 04:29:18;;;;;;;4.53;3.30;;;17.70;99.90;;;;;;5015109;28;20412;-81
2022/06/16 04:31:44;;;;;;;4.50;3.13;;;17.70;99.90;;;;;;5013675;28;20463;-81
2022/06/16 04:34:10;;;;;;;9.83;3.70;;;17.80;99.90;;;;;;5015044;28;20404;-81
2022/06/16 04:36:36;;;;;;;6.17;3.60;;;17.80;99.90;;;;;;5013168;28;20440;-81
2022/06/16 04:39:02;;;;;;;5.07;3.50;;;17.80;99.90;;;;;;5015021;28;20181;-81
2022/06/16 04:41:28;;;;;;;5.57;3.67;;;17.80;99.90;;;;;;5013737;28;20935;-81
2022/06/16 04:43:53;;;;;;;6.50;4.10;;;17.80;99.90;;;;;;5013104;28;20447;-81
2022/06/16 04:46:20;;;;;;;5.43;3.63;;;17.80;99.90;;;;;;5013142;28;20259;-81
2022/06/16 04:48:46;;;;;;;6.23;3.80;;;17.90;99.90;;;;;;5014505;28;20260;-81
2022/06/16 04:51:13;;;;;;;5.43;3.47;;;17.90;99.90;;;;;;5014635;28;20555;-82
2022/06/16 04:53:39;;;;;;;6.10;3.40;;;17.90;99.90;;;;;;5013215;28;20173;-82
2022/06/16 04:56:06;;;;;;;5.70;3.10;;;17.90;99.90;;;;;;5015442;28;20431;-83
2022/06/16 04:58:32;;;;;;;4.90;3.30;;;18.00;99.90;;;;;;5060617;23;20759;-79
2022/06/16 05:01:02;;;;;;;5.43;3.47;;;18.00;99.90;;;;;;5046722;28;20828;-78
2022/06/16 05:03:28;;;;;;;6.43;3.27;;;18.00;99.90;;;;;;5052236;28;20557;-79
2022/06/16 05:05:55;;;;;;;4.90;3.50;;;18.10;99.90;;;;;;5052251;28;20473;-79
2022/06/16 05:08:22;;;;;;;5.33;3.60;;;18.10;99.90;;;;;;5035471;28;20188;-78
2022/06/16 05:10:49;;;;;;;7.67;3.83;;;18.00;99.90;;;;;;5035579;28;20474;-79
2022/06/16 05:13:16;;;;;;;7.47;5.47;;;18.10;99.90;;;;;;5035581;28;20753;-78
2022/06/16 05:15:45;;;;;;;6.47;3.67;;;18.10;99.90;;;;;;5035627;28;20423;-79
2022/06/16 05:18:12;;;;;;;6.30;3.47;;;18.20;99.90;;;;;;5035761;28;20909;-79
2022/06/16 05:20:40;;;;;;;4.43;3.37;;;18.20;99.90;;;;;;5035637;28;20446;-78
2022/06/16 05:23:06;;;;;;;6.60;3.63;;;18.30;99.90;;;;;;5035797;28;20490;-78
2022/06/16 05:25:32;;;;;;;5.63;3.97;;;18.40;99.90;;;;;;5035070;28;20462;-78
2022/06/16 05:27:57;;;;;;;7.73;3.00;;;18.40;99.90;;;;;;5035608;28;20426;-78
2022/06/16 05:30:23;;;;;;;6.20;3.23;;;18.30;99.90;;;;;;5036047;28;20735;-78
2022/06/16 05:32:49;;;;;;;5.03;3.13;;;18.40;99.90;;;;;;5035516;28;20548;-79
2022/06/16 05:35:15;;;;;;;6.37;2.70;;;18.50;99.90;;;;;;5035521;28;20238;-78
2022/06/16 05:37:41;;;;;;;4.97;2.93;;;18.60;99.90;;;;;;5034851;28;20490;-78
2022/06/16 05:40:07;;;;;;;5.70;3.10;;;18.60;99.90;;;;;;5035544;28;20187;-78
2022/06/16 05:42:33;;;;;;;5.80;3.60;;;18.60;99.90;;;;;;5035628;28;20184;-79
2022/06/16 05:44:59;;;;;;;4.70;3.37;;;18.80;99.90;;;;;;5035738;28;20427;-79
2022/06/16 05:47:24;;;;;;;5.87;3.00;;;18.90;99.90;;;;;;5034818;28;20442;-78
2022/06/16 05:49:53;;;;;;;6.07;3.10;;;18.90;99.90;;;;;;5037849;28;20288;-79
2022/06/16 05:52:21;;;;;;;5.30;3.23;;;18.90;99.90;;;;;;5036471;28;20238;-79
2022/06/16 05:54:47;;;;;;;8.53;3.07;;;19.00;99.90;;;;;;5036817;28;20418;-79
2022/06/16 05:57:13;;;;;;;6.00;3.17;;;19.00;99.90;;;;;;5036177;28;20973;-79
2022/06/16 05:59:40;;;;;;;5.07;3.03;;;19.20;99.90;;;;;;5036685;28;20983;-79
2022/06/16 06:02:15;;;;;;;5.13;3.27;;;19.20;99.90;;;;;;5035706;28;20514;-79
2022/06/16 06:04:42;;;;;;;5.00;3.33;;;19.30;99.90;;;;;;5035765;28;20411;-80
2022/06/16 06:07:08;;;;;;;4.90;3.60;;;19.30;99.90;;;;;;5035729;28;20533;-79
2022/06/16 06:18:16;;;;;;;4.90;3.43;;;19.70;99.90;;;;;;5035294;28;20494;-79
2022/06/16 06:20:43;;;;;;;5.40;3.20;;;19.70;99.90;;;;;;5032772;28;20506;-79
2022/06/16 06:23:09;;;;;;;5.53;3.27;;;19.90;99.90;;;;;;5032799;28;20478;-79
2022/06/16 06:25:35;;;;;;;4.70;3.03;;;20.00;99.90;;;;;;5032470;28;20923;-79
2022/06/16 06:28:01;;;;;;;5.20;3.00;;;20.10;99.90;;;;;;5032366;28;20212;-78
2022/06/16 06:30:29;;;;;;;4.20;2.90;;;20.10;99.90;;;;;;5032435;28;20277;-80
2022/06/16 06:32:57;;;;;;;3.73;2.50;;;20.10;99.90;;;;;;5032931;28;20419;-78
2022/06/16 06:35:23;;;;;;;6.10;3.87;;;20.20;99.90;;;;;;5050072;28;20935;-79
2022/06/16 06:37:51;;;;;;;7.13;3.67;;;20.30;99.90;;;;;;5032066;28;20438;-77
2022/06/16 06:40:21;;;;;;;4.30;3.33;;;20.30;99.90;;;;;;5034118;28;20434;-78
2022/06/16 06:42:47;;;;;;;5.77;3.60;;;20.40;99.90;;;;;;5034800;28;20418;-78
2022/06/16 06:45:13;;;;;;;4.80;3.37;;;20.50;99.90;;;;;;5034075;28;20438;-79
2022/06/16 06:47:39;;;;;;;4.37;3.00;;;20.60;99.90;;;;;;5033237;28;20785;-79
2022/06/16 06:50:06;;;;;;;4.33;3.00;;;20.60;99.90;;;;;;5034963;28;20218;-78
2022/06/16 06:52:34;;;;;;;4.00;2.83;;;20.60;99.90;;;;;;5034656;28;20204;-78
2022/06/16 06:55:00;;;;;;;4.90;3.30;;;20.60;99.90;;;;;;5034709;28;20445;-79
2022/06/16 06:57:29;;;;;;;6.97;3.60;;;20.50;99.90;;;;;;5034872;28;20467;-79
2022/06/16 06:59:55;;;;;;;6.50;3.30;;;20.70;99.90;;;;;;5035796;28;20180;-78
2022/06/16 07:02:21;;;;;;;5.80;3.33;;;20.80;99.90;;;;;;5035194;28;20573;-78
2022/06/16 07:04:47;;;;;;;4.10;2.60;;;20.80;99.90;;;;;;5035117;28;20187;-78
2022/06/16 07:07:17;;;;;;;5.30;2.77;;;20.90;99.90;;;;;;5034772;28;20439;-78
2022/06/16 07:09:43;;;;;;;3.63;2.33;;;21.10;99.90;;;;;;5035292;28;20533;-78
2022/06/16 07:12:14;;;;;;;6.57;3.30;;;21.20;99.90;;;;;;5034806;28;20438;-79
2022/06/16 07:14:44;;;;;;;5.83;3.00;;;21.20;99.90;;;;;;5034722;28;20589;-78
2022/06/16 07:17:11;;;;;;;8.10;2.73;;;21.30;99.90;;;;;;5034283;28;20443;-78
2022/06/16 07:19:37;;;;;;;3.73;2.47;;;21.50;99.90;;;;;;5034598;28;20420;-78
2022/06/16 07:22:04;;;;;;;4.07;2.80;;;21.50;99.90;;;;;;5035275;28;20922;-79
2022/06/16 07:24:30;;;;;;;6.27;5.60;;;21.60;99.90;;;;;;5034721;28;20949;-79
2022/06/16 07:26:56;;;;;;;4.20;2.90;;;21.60;99.90;;;;;;5034743;28;20472;-78
2022/06/16 07:29:22;;;;;;;5.80;2.90;;;21.60;99.90;;;;;;5038273;28;20419;-78
2022/06/16 07:31:48;;;;;;;8.20;3.30;;;21.80;99.90;;;;;;5039640;28;20591;-78
2022/06/16 07:34:15;;;;;;;5.10;2.80;;;21.90;99.90;;;;;;5039203;28;20657;-78
2022/06/16 07:36:41;;;;;;;5.23;3.00;;;21.90;99.90;;;;;;5039206;28;20227;-79
2022/06/16 07:39:07;;;;;;;4.67;2.93;;;22.00;99.90;;;;;;5039752;28;20447;-79
2022/06/16 07:41:34;;;;;;;6.37;3.10;;;22.00;99.90;;;;;;5039662;28;20437;-79
2022/06/16 07:44:27;;;;;;;5.40;3.70;;;22.10;99.90;;;;;;5037132;28;20423;-78
2022/06/16 07:46:53;;;;;;;7.13;3.10;;;22.20;99.90;;;;;;5050137;28;20867;-80
2022/06/16 07:49:22;;;;;;;11.10;3.13;;;22.20;99.90;;;;;;5036286;28;20431;-78
2022/06/16 07:51:50;;;;;;;5.13;2.67;;;22.30;99.90;;;;;;5037152;28;20494;-78
2022/06/16 07:54:17;;;;;;;7.40;3.17;;;22.50;99.90;;;;;;5036922;28;20419;-78
2022/06/16 07:56:45;;;;;;;5.40;2.93;;;22.60;99.90;;;;;;5033290;28;20541;-79
2022/06/16 07:59:11;;;;;;;4.70;2.83;;;22.50;99.90;;;;;;5032217;28;20806;-78
2022/06/16 08:01:37;;;;;;;5.60;3.50;;;22.60;99.90;;;;;;5024512;28;20431;-78
2022/06/16 08:04:06;;;;;;;5.03;3.10;;;22.60;99.90;;;;;;5033545;28;20427;-80
2022/06/16 08:06:34;;;;;;;3.87;2.60;;;22.60;99.90;;;;;;5035213;28;20219;-78
2022/06/16 08:09:00;;;;;;;5.70;3.00;;;22.70;99.90;;;;;;5032174;28;20427;-78
2022/06/16 08:14:10;;;;;;;5.03;2.67;;;23.20;99.90;;;;;;5031692;28;20188;-78
2022/06/16 08:16:36;;;;;;;4.90;3.17;;;24.20;99.90;;;;;;5033774;28;20440;-77
2022/06/16 08:19:04;;;;;;;6.83;2.80;;;25.40;99.90;;;;;;5017823;28;20275;-77
2022/06/16 08:21:29;;;;;;;5.77;2.50;;;26.20;96.30;;;;;;5018241;28;20420;-78
2022/06/16 08:23:56;;;;;;;4.60;2.70;;;27.10;93.10;;;;;;5019256;28;20494;-78
2022/06/16 08:26:22;;;;;;;4.50;2.70;;;28.00;91.10;;;;;;5018405;28;20255;-78
2022/06/16 08:28:50;;;;;;;4.63;2.50;;;;;;;;;;5018410;28;20466;-78
2022/06/16 08:31:17;;;;;;;6.30;3.00;;;29.70;77.80;;;;;;5034680;28;20476;-78
2022/06/16 08:33:43;;;;;;;3.60;2.37;;;30.60;75.20;;;;;;5017978;28;20424;-78
2022/06/16 08:36:09;;;;;;;5.00;2.60;;;31.60;71.80;;;;;;5033287;28;20452;-78
2022/06/16 08:38:35;;;;;;;3.40;2.70;;;32.10;59.80;;;;;;5016184;28;20495;-78
2022/06/16 08:41:11;;;;;;;4.60;2.97;;;32.30;56.00;;;;;;5016249;28;20678;-78
2022/06/16 08:43:53;;;;;;;4.27;2.67;;;32.50;54.90;;;;;;5032755;28;20258;-79
2022/06/16 08:46:20;;;;;;;4.60;2.93;;;33.30;53.00;;;;;;5015428;28;20545;-78
2022/06/16 08:49:18;;;;;;;4.33;2.50;;;33.60;50.50;;;;;;5017007;28;20416;-79
2022/06/16 08:52:01;;;;;;;4.80;2.80;;;34.20;49.50;;;;;;5033315;28;20471;-78
2022/06/16 08:54:42;;;;;;;6.70;2.80;;;35.30;47.90;;;;;;5032619;28;20435;-79
2022/06/16 08:57:44;;;;;;;3.70;2.80;;;36.10;46.70;;;;;;5032319;28;20443;-78
2022/06/16 09:00:15;;;;;;;4.07;2.53;;;36.90;45.70;;;;;;5016450;28;20438;-79
2022/06/16 09:03:06;;;;;;;3.47;2.40;;;37.20;42.00;;;;;;5016824;28;20913;-79
2022/06/16 09:05:50;;;;;;;5.00;2.03;;;37.20;40.00;;;;;;5033102;28;20416;-79
2022/06/16 09:08:48;;;;;;;4.87;2.07;;;37.70;38.40;;;;;;5032972;28;20455;-79
2022/06/16 09:11:29;;;;;;;2.80;1.90;;;38.60;38.00;;;;;;5016064;28;20546;-79
2022/06/16 09:14:13;;;;;;;4.60;2.60;;;39.30;36.70;;;;;;5032389;28;20478;-79
2022/06/16 09:16:41;;;;;;;4.43;2.00;;;39.40;33.70;;;;;;5032099;28;20448;-79
2022/06/16 09:19:36;;;;;;;4.70;2.43;;;39.50;31.90;;;;;;5032090;28;20515;-79
2022/06/16 09:22:16;;;;;;;4.13;2.60;;;39.30;32.00;;;;;;5008321;28;20421;-80
2022/06/16 09:24:48;;;;;;;5.10;2.30;;;39.10;30.90;;;;;;5032642;28;20794;-79
2022/06/16 09:27:48;;;;;;;3.60;2.20;;;39.30;31.40;;;;;;5032150;28;20464;-79
2022/06/16 09:30:20;;;;;;;5.33;2.20;;;39.20;31.00;;;;;;5031612;28;20527;-79
2022/06/16 09:32:55;;;;;;;3.00;1.97;;;38.10;29.50;;;;;;5015234;28;20416;-78
2022/06/16 09:35:26;;;;;;;3.27;1.70;;;38.00;30.20;;;;;;5015256;28;20797;-79
2022/06/16 09:37:58;;;;;;;2.83;1.80;;;39.00;31.80;;;;;;5015647;28;20754;-79
2022/06/16 09:40:33;;;;;;;4.30;2.37;;;39.80;30.20;;;;;;5032274;28;20476;-79
2022/06/16 09:43:17;;;;;;;2.90;1.87;;;39.30;28.90;;;;;;5032430;28;20438;-79
2022/06/16 09:45:49;;;;;;;5.07;1.80;;;39.20;28.70;;;;;;5014703;28;20422;-79
2022/06/16 09:48:30;;;;;;;2.70;1.53;;;39.00;29.00;;;;;;5031465;28;20420;-79
2022/06/16 09:51:02;;;;;;;3.83;1.90;;;39.50;29.00;;;;;;5013964;28;20501;-78
2022/06/16 09:53:42;;;;;;;4.07;2.10;;;39.70;29.30;;;;;;5032028;28;20412;-79
2022/06/16 09:56:20;;;;;;;4.20;2.23;;;40.00;29.40;;;;;;5014959;28;20484;-78
2022/06/16 09:58:54;;;;;;;5.43;2.40;;;40.40;28.70;;;;;;5015871;28;20521;-78
2022/06/16 10:01:23;;;;;;;3.20;1.70;;;40.70;29.00;;;;;;5015484;28;20486;-79
2022/06/16 10:04:03;;;;;;;4.00;1.80;;;41.30;28.20;;;;;;5015584;28;20873;-79
2022/06/16 10:06:53;;;;;;;3.03;1.80;;;41.90;27.80;;;;;;5015351;28;21041;-79
2022/06/16 10:09:57;;;;;;;3.60;1.80;;;42.60;27.20;;;;;;5031630;28;20419;-79
2022/06/16 10:12:50;;;;;;;4.40;2.70;;;42.20;26.90;;;;;;5014969;28;20190;-76
2022/06/16 10:15:34;;;;;;;4.07;1.40;;;41.50;26.90;;;;;;5001874;28;20510;-76
2022/06/16 10:18:00;;;;;;;2.80;1.63;;;41.90;26.80;;;;;;5011402;28;20647;-76
2022/06/16 10:20:28;;;;;;;2.70;1.50;;;42.50;27.20;;;;;;5011567;28;20416;-76
2022/06/16 10:23:15;;;;;;;4.20;2.00;;;42.50;27.60;;;;;;5011447;28;20184;-75
2022/06/16 10:25:49;;;;;;;3.53;1.87;;;42.20;27.50;;;;;;5027670;28;20192;-74
2022/06/16 10:28:21;;;;;;;4.70;2.30;;;41.10;26.50;;;;;;5021328;28;20267;-75
2022/06/16 10:30:47;;;;;;;2.73;1.77;;;40.40;26.70;;;;;;5047182;28;20884;-75
2022/06/16 10:33:47;;;;;;;4.47;2.10;;;39.90;27.10;;;;;;5030858;28;20497;-76
2022/06/16 10:36:20;;;;;;;3.47;2.33;;;39.20;27.60;;;;;;5012418;28;20475;-75
2022/06/16 10:39:24;;;;;;;4.03;2.10;;;38.70;28.60;;;;;;5013287;28;20554;-74
2022/06/16 10:42:12;;;;;;;2.80;1.50;;;39.20;29.30;;;;;;5027210;28;20427;-75
2022/06/16 10:44:51;;;;;;;4.10;2.47;;;39.00;29.10;;;;;;5010315;28;20655;-74
2022/06/16 10:47:31;;;;;;;3.10;1.53;;;38.60;27.80;;;;;;5026972;28;20451;-75
2022/06/16 10:49:58;;;;;;;3.70;2.10;;;38.20;28.90;;;;;;5027329;28;20923;-75
2022/06/16 10:52:30;;;;;;;3.67;1.90;;;37.90;29.50;;;;;;5027337;28;20420;-74
2022/06/16 10:55:16;;;;;;;2.90;2.00;;;36.60;28.40;;;;;;5026816;28;20431;-75
2022/06/16 10:58:06;;;;;;;3.53;1.87;;;37.00;29.90;;;;;;5026830;28;20463;-74
2022/06/16 11:00:34;;;;;;;4.93;1.97;;;38.00;29.80;;;;;;5051880;22;20498;-81
2022/06/16 11:03:09;;;;;;;3.53;2.00;;;38.20;29.20;;;;;;5032105;28;20423;-81
2022/06/16 11:05:54;;;;;;;2.73;1.80;;;37.30;29.70;;;;;;5031882;28;20464;-81
2022/06/16 11:08:22;;;;;;;4.60;2.00;;;36.40;30.30;;;;;;5030442;28;20872;-81
2022/06/16 11:10:55;;;;;;;5.83;2.30;;;35.50;30.50;;;;;;5016202;28;20483;-80
2022/06/16 11:13:27;;;;;;;5.73;1.57;;;35.10;31.50;;;;;;5013032;28;20515;-80
2022/06/16 11:15:53;;;;;;;3.10;1.67;;;34.60;32.30;;;;;;5017293;28;20411;-83
2022/06/16 11:18:23;;;;;;;3.47;1.60;;;33.60;32.70;;;;;;5030438;28;20451;-82
2022/06/16 11:20:53;;;;;;;4.97;1.80;;;32.40;32.50;;;;;;5031832;28;20431;-81
2022/06/16 11:23:33;;;;;;;3.70;1.37;;;31.50;33.40;;;;;;5032286;28;20407;-82
2022/06/16 11:26:41;;;;;;;5.40;1.83;;;31.10;34.90;;;;;;5031588;28;20494;-82
2022/06/16 11:29:10;;;;;;;3.53;1.90;;;30.60;35.00;;;;;;5031884;28;20411;-80
2022/06/16 11:31:46;;;;;;;2.50;1.47;;;30.10;36.50;;;;;;5031611;28;20561;-81
2022/06/16 11:34:18;;;;;;;2.60;1.50;;;29.60;35.50;;;;;;5031700;28;20415;-79
2022/06/16 11:37:05;;;;;;;3.00;1.80;;;29.30;36.00;;;;;;5031638;28;20422;-82
2022/06/16 11:39:42;;;;;;;3.70;1.70;;;29.10;36.70;;;;;;5034988;28;20439;-82
2022/06/16 11:42:27;;;;;;;3.73;1.47;;;28.90;37.30;;;;;;5034984;28;20948;-82
2022/06/16 11:45:16;;;;;;;2.70;1.60;;;28.70;37.40;;;;;;5033656;28;20423;-81
2022/06/16 11:47:55;;;;;;;3.77;1.50;;;28.60;38.20;;;;;;5034058;28;20633;-81
2022/06/16 11:50:36;;;;;;;2.97;1.70;;;28.60;38.30;;;;;;5034351;28;20469;-82
2022/06/16 11:53:01;;;;;;;3.07;1.40;;;28.60;38.30;;;;;;5034481;28;20410;-82
2022/06/16 11:55:39;;;;;;;3.37;1.70;;;28.50;37.40;;;;;;5032370;28;20423;-82
2022/06/16 11:58:28;;;;;;;4.03;1.60;;;28.50;38.30;;;;;;5033900;28;20177;-82
2022/06/16 12:01:01;;;;;;;3.63;1.57;;;28.50;37.10;;;;;;5034102;28;20465;-82
2022/06/16 12:03:43;;;;;;;2.90;1.70;;;28.60;37.20;;;;;;5033944;28;20442;-82
2022/06/16 12:06:08;;;;;;;4.10;2.00;;;28.60;37.60;;;;;;5033333;28;20906;-81
2022/06/16 12:08:40;;;;;;;4.20;1.50;;;28.50;38.00;;;;;;5032387;28;20419;-82
2022/06/16 12:11:11;;;;;;;2.50;1.60;;;28.50;38.30;;;;;;5033460;28;20212;-82
2022/06/16 12:13:49;;;;;;;5.90;1.67;;;28.30;37.80;;;;;;5032428;28;20430;-80
2022/06/16 12:16:34;;;;;;;2.80;1.30;;;28.20;44.50;;;;;;5037052;28;20448;-81
2022/06/16 12:19:32;;;;;;;3.60;1.63;;;28.50;39.00;;;;;;5031158;28;20522;-82
2022/06/16 12:22:04;;;;;;;2.43;1.50;;;28.70;39.50;;;;;;5000223;28;20431;-82
2022/06/16 12:24:48;;;;;;;5.17;1.73;;;28.80;38.00;;;;;;5017087;28;20420;-82
2022/06/16 12:27:51;;;;;;;3.37;1.80;;;28.70;37.10;;;;;;5015106;28;20415;-83
2022/06/16 12:30:21;;;;;;;4.03;1.53;;;28.90;38.10;;;;;;4976023;28;20893;-84
2022/06/16 12:33:01;;;;;;;6.53;1.77;;;29.10;38.20;;;;;;5021905;28;20424;-84
2022/06/16 12:35:49;;;;;;;2.97;1.40;;;29.10;38.30;;;;;;5023057;28;21104;-82
2022/06/16 12:38:23;;;;;;;2.57;1.33;;;29.00;38.10;;;;;;5022225;28;20493;-84
2022/06/16 12:40:53;;;;;;;4.83;1.67;;;29.00;38.70;;;;;;5035417;28;20532;-82
2022/06/16 12:43:27;;;;;;;2.60;1.60;;;28.90;39.70;;;;;;5036801;28;20415;-84
2022/06/16 12:46:06;;;;;;;3.00;1.53;;;29.10;39.30;;;;;;5035694;28;20411;-81
2022/06/16 12:48:41;;;;;;;2.40;1.47;;;29.10;38.40;;;;;;5031096;28;20439;-80
2022/06/16 12:51:10;;;;;;;2.83;1.80;;;29.20;40.00;;;;;;5032540;28;20481;-82
2022/06/16 12:53:41;;;;;;;3.30;1.53;;;29.30;39.30;;;;;;5020610;28;20443;-82
2022/06/16 12:56:12;;;;;;;6.47;2.23;;;29.30;39.10;;;;;;5035464;28;20423;-81
2022/06/16 12:58:51;;;;;;;4.00;1.53;;;29.10;39.10;;;;;;5028022;28;20858;-80
2022/06/16 13:01:17;;;;;;;3.83;1.70;;;28.90;37.30;;;;;;5033981;28;20439;-82
2022/06/16 13:04:08;;;;;;;4.07;1.93;;;28.80;38.50;;;;;;5034100;28;20427;-82
2022/06/16 13:06:35;;;;;;;3.40;1.93;;;28.70;38.70;;;;;;5033972;28;20423;-81
2022/06/16 13:09:04;;;;;;;2.60;1.80;;;28.60;38.20;;;;;;5034593;28;20419;-81
2022/06/16 13:11:34;;;;;;;5.37;1.70;;;28.40;37.60;;;;;;5034759;28;20498;-80
2022/06/16 13:14:07;;;;;;;2.93;1.80;;;28.40;39.00;;;;;;5034667;28;20450;-82
2022/06/16 13:16:38;;;;;;;4.70;2.20;;;28.50;39.20;;;;;;5034816;28;20411;-81
2022/06/16 13:19:38;;;;;;;3.00;1.73;;;29.10;40.00;;;;;;5033648;28;20917;-81
2022/06/16 13:22:06;;;;;;;7.63;2.03;;;29.80;39.50;;;;;;5020062;28;20434;-82
2022/06/16 13:24:53;;;;;;;3.50;2.10;;;30.50;39.30;;;;;;5036303;28;20428;-82
2022/06/16 13:27:19;;;;;;;3.13;1.90;;;31.90;38.60;;;;;;5029510;28;20432;-83
2022/06/16 13:29:50;;;;;;;3.10;1.90;;;32.70;36.00;;;;;;5031596;28;20458;-79
2022/06/16 13:32:38;;;;;;;3.43;1.90;;;32.90;36.80;;;;;;5026034;28;20265;-80
2022/06/16 13:35:12;;;;;;;3.37;2.23;;;32.80;35.40;;;;;;5033278;28;20806;-80